createdAt,value
2022-12-03T00:00:12.451Z,10.65
2022-12-03T00:02:57.457Z,12.28
2022-12-03T00:05:48.974Z,11.05
2022-12-03T00:08:33.643Z,11.48
2022-12-03T00:11:20.971Z,11.53
2022-12-03T00:14:08.234Z,11.83
2022-12-03T00:16:55.734Z,11.22
2022-12-03T00:19:43.171Z,12.40
2022-12-03T00:22:30.566Z,12.80
2022-12-03T00:25:18.288Z,13.75
2022-12-03T00:28:05.881Z,12.58
2022-12-03T00:30:55.975Z,13.18
2022-12-03T00:33:43.134Z,13.65
2022-12-03T00:36:30.557Z,14.33
2022-12-03T00:39:18.100Z,13.38
2022-12-03T00:42:05.665Z,12.55
2022-12-03T00:44:53.364Z,14.00
2022-12-03T00:47:41.715Z,12.80
2022-12-03T00:50:29.183Z,13.08
2022-12-03T00:53:16.747Z,13.43
2022-12-03T00:56:04.150Z,13.05
2022-12-03T00:58:51.369Z,13.35
2022-12-03T01:01:39.055Z,13.00
2022-12-03T01:04:26.496Z,11.45
2022-12-03T01:07:13.904Z,12.30
2022-12-03T01:10:01.228Z,13.32
2022-12-03T01:12:48.829Z,12.15
2022-12-03T01:15:36.622Z,12.15
2022-12-03T01:18:24.231Z,12.73
2022-12-03T01:21:11.793Z,12.53
2022-12-03T01:23:59.038Z,12.98
2022-12-03T01:26:46.612Z,12.65
2022-12-03T01:29:34.168Z,12.78
2022-12-03T01:32:21.425Z,12.78
2022-12-03T01:35:08.945Z,12.90
2022-12-03T01:37:56.063Z,11.35
2022-12-03T01:40:43.658Z,12.73
2022-12-03T01:43:30.959Z,11.08
2022-12-03T01:46:21.888Z,11.18
2022-12-03T01:49:12.222Z,12.07
2022-12-03T01:51:59.895Z,10.88
2022-12-03T01:54:53.459Z,12.13
2022-12-03T01:57:55.849Z,10.88
2022-12-03T02:00:43.571Z,10.65
2022-12-03T02:03:31.109Z,11.48
2022-12-03T02:06:21.218Z,11.10
2022-12-03T02:09:11.807Z,11.55
2022-12-03T02:11:59.038Z,10.82
2022-12-03T02:14:47.282Z,11.65
2022-12-03T02:17:34.902Z,11.97
2022-12-03T02:20:22.836Z,11.48
2022-12-03T02:23:19.117Z,10.63
2022-12-03T02:26:06.271Z,11.15
2022-12-03T02:28:53.749Z,11.57
2022-12-03T02:31:40.981Z,11.10
2022-12-03T02:34:43.656Z,10.08
2022-12-03T02:37:37.167Z,10.50
2022-12-03T02:40:27.592Z,9.88
2022-12-03T02:43:17.134Z,8.58
2022-12-03T02:46:06.575Z,9.10
2022-12-03T02:48:54.179Z,9.40
2022-12-03T02:51:41.563Z,10.05
2022-12-03T02:54:29.070Z,9.20
2022-12-03T02:57:17.892Z,9.93
2022-12-03T03:00:07.210Z,9.78
2022-12-03T03:02:54.434Z,9.18
2022-12-03T03:05:42.013Z,9.10
2022-12-03T03:08:31.672Z,9.08
2022-12-03T03:11:19.195Z,9.30
2022-12-03T03:14:06.710Z,8.50
2022-12-03T03:16:57.457Z,8.73
2022-12-03T03:19:44.730Z,8.73
2022-12-03T03:22:43.214Z,9.05
2022-12-03T03:25:30.734Z,8.50
2022-12-03T03:28:18.735Z,9.50
2022-12-03T03:31:07.998Z,9.10
2022-12-03T03:33:55.279Z,9.48
2022-12-03T03:36:42.972Z,8.15
2022-12-03T03:39:30.603Z,8.35
2022-12-03T03:42:18.498Z,7.97
2022-12-03T03:45:07.987Z,7.78
2022-12-03T03:47:56.971Z,7.80
2022-12-03T03:50:45.223Z,8.88
2022-12-03T03:53:52.381Z,8.83
2022-12-03T03:56:40.262Z,9.15
2022-12-03T03:59:27.673Z,9.18
2022-12-03T04:02:22.618Z,8.43
2022-12-03T04:05:12.795Z,8.83
2022-12-03T04:08:00.095Z,7.85
2022-12-03T04:11:05.157Z,8.30
2022-12-03T04:14:12.048Z,8.20
2022-12-03T04:16:59.348Z,7.67
2022-12-03T04:19:46.810Z,8.35
2022-12-03T04:22:40.291Z,8.30
2022-12-03T04:25:45.622Z,7.85
2022-12-03T04:28:51.464Z,8.25
2022-12-03T04:31:57.690Z,8.25
2022-12-03T04:35:03.517Z,8.30
2022-12-03T04:37:50.659Z,7.80
2022-12-03T04:40:55.373Z,8.60
2022-12-03T04:43:43.911Z,8.38
2022-12-03T04:46:32.307Z,7.67
2022-12-03T04:49:19.722Z,8.05
2022-12-03T04:52:07.271Z,6.85
2022-12-03T04:54:54.851Z,7.22
2022-12-03T04:57:42.322Z,7.62
2022-12-03T05:00:29.466Z,7.70
2022-12-03T05:03:17.179Z,8.05
2022-12-03T05:06:04.382Z,7.83
2022-12-03T05:08:51.869Z,8.20
2022-12-03T05:11:39.623Z,8.40
2022-12-03T05:14:26.698Z,8.05
2022-12-03T05:17:13.881Z,7.12
2022-12-03T05:20:18.967Z,7.80
2022-12-03T05:23:06.494Z,7.83
2022-12-03T05:25:53.773Z,8.20
2022-12-03T05:28:40.973Z,8.18
2022-12-03T05:31:29.180Z,8.23
2022-12-03T05:34:16.551Z,8.00
2022-12-03T05:37:03.996Z,8.70
2022-12-03T05:39:51.328Z,8.48
2022-12-03T05:42:53.688Z,7.97
2022-12-03T05:45:42.904Z,7.90
2022-12-03T05:48:30.110Z,8.68
2022-12-03T05:51:17.519Z,8.10
2022-12-03T05:54:05.238Z,7.70
2022-12-03T05:56:52.743Z,7.85
2022-12-03T05:59:39.995Z,6.95
2022-12-03T06:02:27.612Z,8.50
2022-12-03T06:05:16.928Z,8.73
2022-12-03T06:08:04.510Z,8.38
2022-12-03T06:10:51.537Z,9.45
2022-12-03T06:13:38.953Z,9.00
2022-12-03T06:16:26.227Z,7.75
2022-12-03T06:19:13.825Z,9.18
2022-12-03T06:22:01.069Z,8.53
2022-12-03T06:24:48.595Z,8.88
2022-12-03T06:27:35.812Z,8.90
2022-12-03T06:30:23.220Z,8.48
2022-12-03T06:33:10.467Z,8.58
2022-12-03T06:35:57.925Z,8.23
2022-12-03T06:38:45.064Z,8.50
2022-12-03T06:41:32.509Z,8.95
2022-12-03T06:44:19.875Z,8.95
2022-12-03T06:47:07.179Z,7.83
2022-12-03T06:49:54.751Z,8.83
2022-12-03T06:52:42.374Z,8.33
2022-12-03T06:55:29.914Z,8.50
2022-12-03T06:58:17.418Z,8.35
2022-12-03T07:01:04.723Z,7.90
2022-12-03T07:03:52.257Z,8.45
2022-12-03T07:06:39.415Z,9.15
2022-12-03T07:09:26.791Z,9.15
2022-12-03T07:12:14.296Z,8.80
2022-12-03T07:15:01.430Z,9.08
2022-12-03T07:17:48.775Z,8.68
2022-12-03T07:20:36.253Z,8.83
2022-12-03T07:23:23.669Z,8.83
2022-12-03T07:26:10.990Z,10.00
2022-12-03T07:28:58.821Z,9.08
2022-12-03T07:31:46.054Z,9.73
2022-12-03T07:34:33.586Z,9.85
2022-12-03T07:37:23.201Z,8.53
2022-12-03T07:40:10.692Z,8.25
2022-12-03T07:43:00.452Z,9.53
2022-12-03T07:45:48.157Z,9.85
2022-12-03T07:48:35.558Z,9.35
2022-12-03T07:51:27.380Z,10.18
2022-12-03T07:54:11.953Z,9.48
2022-12-03T07:57:01.640Z,10.68
2022-12-03T07:59:48.169Z,8.90
2022-12-03T08:02:35.534Z,10.23
2022-12-03T08:05:22.745Z,10.10
2022-12-03T08:08:10.033Z,10.55
2022-12-03T08:10:57.019Z,11.30
2022-12-03T08:13:44.696Z,10.30
2022-12-03T08:16:32.450Z,11.00
2022-12-03T08:19:19.658Z,11.00
2022-12-03T08:22:12.409Z,11.70
2022-12-03T08:25:00.105Z,11.25
2022-12-03T08:27:47.290Z,10.30
2022-12-03T08:30:34.821Z,11.85
2022-12-03T08:33:25.014Z,11.83
2022-12-03T08:36:21.705Z,12.30
2022-12-03T08:39:21.067Z,12.28
2022-12-03T08:42:44.240Z,12.13
2022-12-03T08:45:40.733Z,12.18
2022-12-03T08:48:42.815Z,11.30
2022-12-03T08:51:28.516Z,11.85
2022-12-03T08:54:18.939Z,12.05
2022-12-03T08:57:32.659Z,12.10
2022-12-03T09:00:25.233Z,12.85
2022-12-03T09:03:15.363Z,13.35
2022-12-03T09:06:02.847Z,12.68
2022-12-03T09:08:50.282Z,13.15
2022-12-03T09:11:38.054Z,12.78
2022-12-03T09:14:44.558Z,14.33
2022-12-03T09:17:31.961Z,12.35
2022-12-03T09:20:19.464Z,13.48
2022-12-03T09:23:06.705Z,13.40
2022-12-03T09:25:53.967Z,13.00
2022-12-03T09:28:41.993Z,13.60
2022-12-03T09:31:29.690Z,13.62
2022-12-03T09:34:17.223Z,13.22
2022-12-03T09:37:04.429Z,15.15
2022-12-03T09:39:52.117Z,13.65
2022-12-03T09:42:39.583Z,13.43
2022-12-03T09:45:26.766Z,13.85
2022-12-03T09:48:17.093Z,13.98
2022-12-03T09:51:06.165Z,13.85
2022-12-03T09:53:53.494Z,14.05
2022-12-03T09:56:41.038Z,15.78
2022-12-03T09:59:34.163Z,14.18
2022-12-03T10:02:24.590Z,14.38
2022-12-03T10:05:11.933Z,14.35
2022-12-03T10:08:21.650Z,15.35
2022-12-03T10:11:09.185Z,15.20
2022-12-03T10:13:58.116Z,14.07
2022-12-03T10:16:46.001Z,16.15
2022-12-03T10:19:35.650Z,16.00
2022-12-03T10:22:22.810Z,14.93
2022-12-03T10:25:16.008Z,16.80
2022-12-03T10:28:05.221Z,14.73
2022-12-03T10:30:56.258Z,14.53
2022-12-03T10:33:47.397Z,15.38
2022-12-03T10:36:34.827Z,15.83
2022-12-03T10:39:21.989Z,16.40
2022-12-03T10:42:16.447Z,15.63
2022-12-03T10:45:22.437Z,16.10
2022-12-03T10:48:15.626Z,16.73
2022-12-03T10:51:09.506Z,16.27
2022-12-03T10:53:57.033Z,17.27
2022-12-03T10:56:45.437Z,15.72
2022-12-03T10:59:35.170Z,17.15
2022-12-03T11:02:24.646Z,15.43
2022-12-03T11:05:20.807Z,17.10
2022-12-03T11:08:11.573Z,16.02
2022-12-03T11:11:04.785Z,17.20
2022-12-03T11:13:57.206Z,16.12
2022-12-03T11:16:48.068Z,17.45
2022-12-03T11:19:43.866Z,16.82
2022-12-03T11:22:40.581Z,12.60
2022-12-03T11:25:31.725Z,15.75
2022-12-03T11:28:22.918Z,16.62
2022-12-03T11:31:13.693Z,17.10
2022-12-03T11:34:20.976Z,16.77
2022-12-03T11:37:14.425Z,16.67
2022-12-03T11:40:07.760Z,18.02
2022-12-03T11:42:54.973Z,15.58
2022-12-03T11:45:42.387Z,16.87
2022-12-03T11:48:30.162Z,16.52
2022-12-03T11:51:20.429Z,16.95
2022-12-03T11:54:09.438Z,16.52
2022-12-03T11:56:57.287Z,17.30
2022-12-03T11:59:59.241Z,16.07
2022-12-03T12:02:47.278Z,16.77
2022-12-03T12:05:35.585Z,17.67
2022-12-03T12:08:23.226Z,16.85
2022-12-03T12:11:34.436Z,15.75
2022-12-03T12:14:24.759Z,15.75
2022-12-03T12:17:30.123Z,16.80
2022-12-03T12:20:28.227Z,16.70
2022-12-03T12:23:24.503Z,18.52
2022-12-03T12:26:11.913Z,17.27
2022-12-03T12:29:01.475Z,17.25
2022-12-03T12:31:53.946Z,18.42
2022-12-03T12:34:42.426Z,18.55
2022-12-03T12:37:35.698Z,17.70
2022-12-03T12:40:26.723Z,16.27
2022-12-03T12:43:23.812Z,17.37
2022-12-03T12:46:39.013Z,16.25
2022-12-03T12:49:01.336Z,16.82
2022-12-03T12:51:49.724Z,16.93
2022-12-03T12:54:39.199Z,17.98
2022-12-03T12:57:26.165Z,18.50
2022-12-03T13:00:19.359Z,17.23
2022-12-03T13:03:07.866Z,18.62
2022-12-03T13:05:56.730Z,17.73
2022-12-03T13:08:46.577Z,17.32
2022-12-03T13:11:46.130Z,19.12
2022-12-03T13:14:36.652Z,17.30
2022-12-03T13:17:25.886Z,18.30
2022-12-03T13:20:19.561Z,18.10
2022-12-03T13:23:10.182Z,17.37
2022-12-03T13:26:06.652Z,17.15
2022-12-03T13:28:49.401Z,16.87
2022-12-03T13:31:43.472Z,16.95
2022-12-03T13:34:29.213Z,18.12
2022-12-03T13:37:25.978Z,16.57
2022-12-03T13:40:30.485Z,17.27
2022-12-03T13:43:20.087Z,17.65
2022-12-03T13:46:08.960Z,17.32
2022-12-03T13:49:00.335Z,18.50
2022-12-03T13:51:45.246Z,18.20
2022-12-03T13:54:35.146Z,18.85
2022-12-03T13:57:22.788Z,18.48
2022-12-03T14:00:11.113Z,18.20
2022-12-03T14:02:58.545Z,17.05
2022-12-03T14:05:47.074Z,17.75
2022-12-03T14:08:34.397Z,16.12
2022-12-03T14:11:39.733Z,17.40
2022-12-03T14:14:27.185Z,17.20
2022-12-03T14:17:14.533Z,17.20
2022-12-03T14:20:01.989Z,17.35
2022-12-03T14:22:49.316Z,17.50
2022-12-03T14:25:36.813Z,17.52
2022-12-03T14:28:24.569Z,17.37
2022-12-03T14:31:12.105Z,16.67
2022-12-03T14:33:59.648Z,17.37
2022-12-03T14:36:47.129Z,16.02
2022-12-03T14:39:34.758Z,16.20
2022-12-03T14:42:22.377Z,16.40
2022-12-03T14:45:11.478Z,16.07
2022-12-03T14:47:58.983Z,16.90
2022-12-03T14:50:46.677Z,16.67
2022-12-03T14:53:34.154Z,16.15
2022-12-03T14:56:21.693Z,17.90
2022-12-03T14:59:10.796Z,16.62
2022-12-03T15:01:58.254Z,17.55
2022-12-03T15:04:45.781Z,16.42
2022-12-03T15:07:33.422Z,17.12
2022-12-03T15:10:20.710Z,17.02
2022-12-03T15:13:08.213Z,18.25
2022-12-03T15:15:55.659Z,20.15
2022-12-03T15:18:42.903Z,17.17
2022-12-03T15:21:32.666Z,18.45
2022-12-03T15:24:20.077Z,16.00
2022-12-03T15:27:07.328Z,16.25
2022-12-03T15:29:55.169Z,17.05
2022-12-03T15:32:43.152Z,17.32
2022-12-03T15:35:31.495Z,17.40
2022-12-03T15:38:19.362Z,17.27
2022-12-03T15:41:23.295Z,16.90
2022-12-03T15:44:11.173Z,16.23
2022-12-03T15:46:58.353Z,17.85
2022-12-03T15:49:45.874Z,16.65
2022-12-03T15:52:33.070Z,17.40
2022-12-03T15:55:20.607Z,17.67
2022-12-03T15:58:07.764Z,17.37
2022-12-03T16:00:55.115Z,16.95
2022-12-03T16:03:42.538Z,15.23
2022-12-03T16:06:30.895Z,17.07
2022-12-03T16:09:22.327Z,17.48
2022-12-03T16:12:06.824Z,16.75
2022-12-03T16:14:54.563Z,18.00
2022-12-03T16:17:41.983Z,18.10
2022-12-03T16:20:29.317Z,17.92
2022-12-03T16:23:16.542Z,17.77
2022-12-03T16:26:03.797Z,18.50
2022-12-03T16:28:51.044Z,18.32
2022-12-03T16:31:38.513Z,18.02
2022-12-03T16:34:25.936Z,16.52
2022-12-03T16:37:13.211Z,17.77
2022-12-03T16:40:00.861Z,18.35
2022-12-03T16:42:48.398Z,17.37
2022-12-03T16:45:52.907Z,19.17
2022-12-03T16:48:40.102Z,17.70
2022-12-03T16:51:30.421Z,17.25
2022-12-03T16:54:17.791Z,18.27
2022-12-03T16:57:05.501Z,18.10
2022-12-03T16:59:53.079Z,18.05
2022-12-03T17:02:40.387Z,17.27
2022-12-03T17:05:27.971Z,18.25
2022-12-03T17:08:16.655Z,18.55
2022-12-03T17:11:03.787Z,17.75
2022-12-03T17:13:52.800Z,17.50
2022-12-03T17:16:39.956Z,17.70
2022-12-03T17:19:27.489Z,18.67
2022-12-03T17:22:14.752Z,17.40
2022-12-03T17:25:02.022Z,19.15
2022-12-03T17:27:49.782Z,19.12
2022-12-03T17:30:37.235Z,18.75
2022-12-03T17:33:24.713Z,19.07
2022-12-03T17:36:12.437Z,17.20
2022-12-03T17:39:00.011Z,17.80
2022-12-03T17:41:47.532Z,17.98
2022-12-03T17:44:34.851Z,18.20
2022-12-03T17:47:22.502Z,17.95
2022-12-03T17:50:10.296Z,18.00
2022-12-03T17:52:58.463Z,17.82
2022-12-03T17:55:46.810Z,18.82
2022-12-03T17:58:34.704Z,18.92
2022-12-03T18:01:23.129Z,17.90
2022-12-03T18:04:10.467Z,17.42
2022-12-03T18:07:02.116Z,17.65
2022-12-03T18:09:47.136Z,18.02
2022-12-03T18:12:34.755Z,18.48
2022-12-03T18:15:22.051Z,17.00
2022-12-03T18:18:09.279Z,18.67
2022-12-03T18:20:58.278Z,17.98
2022-12-03T18:23:45.778Z,18.95
2022-12-03T18:26:32.994Z,16.95
2022-12-03T18:29:20.595Z,18.48
2022-12-03T18:32:27.058Z,18.05
2022-12-03T18:35:00.268Z,16.75
2022-12-03T18:37:47.624Z,18.48
2022-12-03T18:40:34.972Z,17.42
2022-12-03T18:43:22.262Z,19.50
2022-12-03T18:46:31.170Z,18.07
2022-12-03T18:49:02.905Z,18.12
2022-12-03T18:51:54.505Z,18.42
2022-12-03T18:54:38.851Z,18.27
2022-12-03T18:57:26.409Z,19.45
2022-12-03T19:00:14.608Z,18.10
2022-12-03T19:03:04.241Z,18.30
2022-12-03T19:05:51.494Z,18.30
2022-12-03T19:08:38.949Z,18.50
2022-12-03T19:11:26.764Z,20.05
2022-12-03T19:14:14.390Z,19.00
2022-12-03T19:17:02.906Z,18.40
2022-12-03T19:19:50.333Z,17.73
2022-12-03T19:22:38.213Z,20.17
2022-12-03T19:25:25.666Z,18.10
2022-12-03T19:28:12.803Z,19.50
2022-12-03T19:31:08.544Z,17.27
2022-12-03T19:33:56.102Z,19.40
2022-12-03T19:36:43.553Z,19.17
2022-12-03T19:39:31.573Z,18.35
2022-12-03T19:42:18.984Z,17.55
2022-12-03T19:45:07.082Z,17.12
2022-12-03T19:47:54.442Z,17.40
2022-12-03T19:51:07.794Z,18.15
2022-12-03T19:53:42.456Z,17.02
2022-12-03T19:56:31.723Z,17.87
2022-12-03T19:59:18.843Z,18.57
2022-12-03T20:02:06.133Z,16.73
2022-12-03T20:04:53.261Z,16.40
2022-12-03T20:07:40.654Z,18.05
2022-12-03T20:10:27.595Z,17.67
2022-12-03T20:13:14.952Z,16.87
2022-12-03T20:16:08.538Z,17.95
2022-12-03T20:19:04.434Z,18.45
2022-12-03T20:21:51.925Z,18.75
2022-12-03T20:24:39.252Z,17.82
2022-12-03T20:27:26.477Z,18.50
2022-12-03T20:30:14.008Z,17.55
2022-12-03T20:33:01.200Z,16.80
2022-12-03T20:35:53.874Z,18.12
2022-12-03T20:38:41.401Z,16.57
2022-12-03T20:41:29.835Z,16.65
2022-12-03T20:44:17.176Z,18.23
2022-12-03T20:47:05.139Z,17.85
2022-12-03T20:49:52.881Z,16.00
2022-12-03T20:52:48.478Z,16.93
2022-12-03T20:55:29.434Z,16.80
2022-12-03T20:58:16.638Z,15.90
2022-12-03T21:01:16.024Z,16.65
2022-12-03T21:04:02.883Z,17.40
2022-12-03T21:06:50.562Z,18.27
2022-12-03T21:09:37.969Z,17.10
2022-12-03T21:12:25.206Z,16.90
2022-12-03T21:15:12.684Z,15.75
2022-12-03T21:17:59.973Z,16.62
2022-12-03T21:20:48.511Z,16.02
2022-12-03T21:23:36.407Z,16.25
2022-12-03T21:26:24.711Z,18.12
2022-12-03T21:29:12.125Z,15.95
2022-12-03T21:31:59.556Z,16.27
2022-12-03T21:34:47.089Z,16.32
2022-12-03T21:37:34.302Z,15.93
2022-12-03T21:40:21.651Z,15.95
2022-12-03T21:43:08.766Z,16.07
2022-12-03T21:45:56.183Z,16.12
2022-12-03T21:48:44.219Z,16.15
2022-12-03T21:51:31.554Z,16.07
2022-12-03T21:54:18.809Z,15.15
2022-12-03T21:57:06.118Z,15.75
2022-12-03T21:59:53.761Z,16.42
2022-12-03T22:02:41.287Z,14.05
2022-12-03T22:05:28.572Z,15.48
2022-12-03T22:08:16.410Z,14.83
2022-12-03T22:11:30.947Z,15.13
2022-12-03T22:14:19.912Z,15.38
2022-12-03T22:17:07.552Z,15.28
2022-12-03T22:19:55.542Z,14.38
2022-12-03T22:22:43.066Z,16.32
2022-12-03T22:25:30.537Z,15.65
2022-12-03T22:28:17.849Z,14.90
2022-12-03T22:31:09.106Z,15.15
2022-12-03T22:33:56.445Z,14.25
2022-12-03T22:36:43.779Z,15.32
2022-12-03T22:39:31.408Z,12.98
2022-12-03T22:42:18.556Z,14.50
2022-12-03T22:45:06.691Z,12.90
2022-12-03T22:47:53.894Z,14.28
2022-12-03T22:50:46.357Z,13.75
2022-12-03T22:53:33.741Z,14.35
2022-12-03T22:56:22.298Z,13.90
2022-12-03T22:59:09.738Z,14.15
2022-12-03T23:01:57.089Z,14.58
2022-12-03T23:04:44.416Z,15.13
2022-12-03T23:07:31.946Z,14.30
2022-12-03T23:10:19.484Z,13.40
2022-12-03T23:13:07.802Z,13.20
2022-12-03T23:15:55.260Z,13.53
2022-12-03T23:18:42.639Z,13.32
2022-12-03T23:21:34.042Z,13.75
2022-12-03T23:24:21.316Z,13.20
2022-12-03T23:27:08.448Z,13.43
2022-12-03T23:29:56.043Z,14.05
2022-12-03T23:32:44.359Z,13.88
2022-12-03T23:35:32.334Z,15.03
2022-12-03T23:38:19.746Z,13.13
2022-12-03T23:41:08.565Z,13.22
2022-12-03T23:43:57.263Z,14.25
2022-12-03T23:46:44.239Z,13.43
2022-12-03T23:49:31.304Z,13.48
2022-12-03T23:52:18.500Z,13.65
2022-12-03T23:55:05.931Z,13.35
2022-12-03T23:57:53.293Z,13.80
